Roundup, MT

9:05 PM MST on December 03, 2016 (GMT -0700)
Billings Logan International | | Change Station

Elev 3570 ft 45.81 °N, 108.54 °W | Updated 12 minutes ago

Clear
Clear
35 °F
Feels Like 26 °F
N
14
Wind Variable Wind from West

Today
High -- | Low -- °F
--% Chance of Precip.
Yesterday
High -- | Low -- °F
Precip. -- in
Pressure 30.00 in
Visibility 10.0 miles
Clouds Clear
Windchill 26 °F
Dew Point 18 °F
Humidity 50%
Rainfall 0.00 in
Snow Depth Not available.
7:39 AM 4:28 PM
Waxing Crescent, 19% visible
METAR KBIL 040353Z 26012KT 10SM CLR 02/M08 A2993 RMK AO2 SLP158 T00171078
Pressure 30.00 in
Visibility 10.0 miles
Clouds Clear
Windchill 26 °F
Dew Point 18 °F
Humidity 50%
Rainfall 0.00 in
Snow Depth Not available.
7:39 AM 4:28 PM
Waxing Crescent, 19% visible
METAR KBIL 040353Z 26012KT 10SM CLR 02/M08 A2993 RMK AO2 SLP158 T00171078

10-Day Weather Forecast

Almanac

Astronomy

Dec. 03, 2016 Rise Set
Actual Time
Civil Twilight
Nautical Twilight
Astronomical Twilight
Moon
Length of Visible Light
Length of Day
Tomorrow will be .
, % of the Moon is Illuminated

Today's Extremes

State Highs State Lows

Community

WunderPhotos

Upload Photos

1,955,573 photos uploaded!

WunderBlog® & News

Nearby

Air Quality

  Air Quality AQ Index Pollutant
Not available.

Snow Depth

Station Depth Elevation

Earthquake Activity

City Distance Mag. Time & Date
Minimum magnitude displayed is 2.5.

Coastal Water Temperatures

Place Temperature

Stations

Nearby Weather Stations

Station Location Temp. Windchill Dew Point Humidity Wind Precip. Elev Updated Type
                   

Watches & Warnings

There are currently no watches in effect.